createdAt,value
2023-04-27T00:00:43.715Z,4.30
2023-04-27T00:01:43.784Z,4.10
2023-04-27T00:02:43.826Z,4.20
2023-04-27T00:03:43.762Z,4.70
2023-04-27T00:04:43.988Z,4.10
2023-04-27T00:05:43.815Z,3.90
2023-04-27T00:06:43.683Z,4.20
2023-04-27T00:07:43.647Z,4.30
2023-04-27T00:08:43.650Z,4.50
2023-04-27T00:09:43.613Z,4.30
2023-04-27T00:10:43.617Z,4.00
2023-04-27T00:11:43.612Z,4.10
2023-04-27T00:12:43.583Z,4.90
2023-04-27T00:13:43.576Z,4.00
2023-04-27T00:14:43.577Z,4.10
2023-04-27T00:15:43.554Z,3.80
2023-04-27T00:16:43.639Z,4.80
2023-04-27T00:17:43.644Z,4.40
2023-04-27T00:18:43.522Z,4.50
2023-04-27T00:19:43.552Z,4.30
2023-04-27T00:20:43.507Z,4.20
2023-04-27T00:21:43.521Z,4.00
2023-04-27T00:22:43.482Z,4.00
2023-04-27T00:23:43.485Z,5.00
2023-04-27T00:24:43.450Z,4.00
2023-04-27T00:25:43.477Z,4.80
2023-04-27T00:26:43.452Z,4.20
2023-04-27T00:27:43.424Z,3.90
2023-04-27T00:28:43.426Z,4.70
2023-04-27T00:29:43.400Z,4.30
2023-04-27T00:30:43.393Z,5.10
2023-04-27T00:31:43.432Z,4.10
2023-04-27T00:32:43.378Z,4.40
2023-04-27T00:33:43.364Z,4.10
2023-04-27T00:34:43.354Z,4.00
2023-04-27T00:35:43.354Z,4.10
2023-04-27T00:36:43.347Z,3.80
2023-04-27T00:37:43.317Z,4.10
2023-04-27T00:38:43.308Z,4.00
2023-04-27T00:39:43.316Z,4.20
2023-04-27T00:40:43.284Z,4.40
2023-04-27T00:41:43.287Z,4.90
2023-04-27T00:42:43.289Z,4.80
2023-04-27T00:43:43.267Z,5.60
2023-04-27T00:44:43.241Z,4.90
2023-04-27T00:45:43.252Z,5.30
2023-04-27T00:46:43.257Z,5.00
2023-04-27T00:47:43.234Z,5.50
2023-04-27T00:48:43.208Z,5.90
2023-04-27T00:49:43.191Z,5.40
2023-04-27T00:50:43.180Z,5.00
2023-04-27T00:51:43.206Z,4.60
2023-04-27T00:52:43.170Z,5.10
2023-04-27T00:53:43.158Z,4.30
2023-04-27T00:54:43.153Z,4.50
2023-04-27T00:55:43.138Z,5.30
2023-04-27T00:56:43.130Z,4.70
2023-04-27T00:57:43.120Z,4.70
2023-04-27T00:58:43.095Z,5.00
2023-04-27T00:59:43.087Z,4.50
2023-04-27T01:00:43.069Z,5.10
2023-04-27T01:01:43.157Z,5.70
2023-04-27T01:02:43.137Z,5.00
2023-04-27T01:03:43.160Z,5.30
2023-04-27T01:04:43.040Z,5.00
2023-04-27T01:05:43.033Z,4.50
2023-04-27T01:06:43.029Z,5.60
2023-04-27T01:07:43.028Z,5.10
2023-04-27T01:08:42.962Z,4.50
2023-04-27T01:09:42.970Z,4.80
2023-04-27T01:10:42.964Z,4.90
2023-04-27T01:11:42.977Z,5.10
2023-04-27T01:12:42.934Z,4.90
2023-04-27T01:13:42.969Z,4.70
2023-04-27T01:14:42.904Z,4.60
2023-04-27T01:15:42.916Z,4.90
2023-04-27T01:16:42.959Z,4.60
2023-04-27T01:17:42.911Z,4.80
2023-04-27T01:18:42.871Z,5.00
2023-04-27T01:19:43.510Z,5.00
2023-04-27T01:20:42.846Z,5.20
2023-04-27T01:21:42.847Z,4.60
2023-04-27T01:22:42.852Z,5.50
2023-04-27T01:23:42.813Z,4.80
2023-04-27T01:24:42.812Z,4.80
2023-04-27T01:25:42.796Z,5.20
2023-04-27T01:26:42.794Z,4.80
2023-04-27T01:27:42.780Z,5.30
2023-04-27T01:28:42.756Z,5.00
2023-04-27T01:29:42.761Z,5.10
2023-04-27T01:30:42.749Z,5.00
2023-04-27T01:31:42.831Z,5.50
2023-04-27T01:32:42.766Z,5.00
2023-04-27T01:33:42.705Z,5.00
2023-04-27T01:34:42.688Z,5.00
2023-04-27T01:35:42.685Z,4.90
2023-04-27T01:36:42.692Z,5.20
2023-04-27T01:37:42.667Z,5.10
2023-04-27T01:38:42.645Z,5.40
2023-04-27T01:39:42.647Z,4.70
2023-04-27T01:40:42.635Z,4.50
2023-04-27T01:41:42.647Z,5.40
2023-04-27T01:42:42.619Z,5.50
2023-04-27T01:43:42.606Z,5.60
2023-04-27T01:44:42.604Z,4.80
2023-04-27T01:45:42.580Z,5.00
2023-04-27T01:46:42.625Z,5.10
2023-04-27T01:47:42.648Z,5.50
2023-04-27T01:48:42.571Z,5.00
2023-04-27T01:49:42.536Z,5.20
2023-04-27T01:50:42.549Z,5.20
2023-04-27T01:51:42.517Z,5.60
2023-04-27T01:52:42.521Z,5.30
2023-04-27T01:53:42.515Z,5.00
2023-04-27T01:54:42.476Z,5.30
2023-04-27T01:55:42.471Z,5.30
2023-04-27T01:56:42.478Z,5.30
2023-04-27T01:57:42.478Z,5.50
2023-04-27T01:58:42.439Z,5.30
2023-04-27T01:59:42.440Z,5.10
2023-04-27T02:00:42.421Z,5.30
2023-04-27T02:01:42.458Z,5.60
2023-04-27T02:02:42.569Z,5.40
2023-04-27T02:03:42.506Z,5.20
2023-04-27T02:04:42.430Z,5.30
2023-04-27T02:05:42.380Z,5.10
2023-04-27T02:06:42.360Z,5.50
2023-04-27T02:07:42.378Z,5.70
2023-04-27T02:08:42.323Z,5.70
2023-04-27T02:09:42.315Z,5.40
2023-04-27T02:10:42.325Z,5.30
2023-04-27T02:11:42.300Z,5.30
2023-04-27T02:12:42.309Z,5.30
2023-04-27T02:13:42.300Z,4.90
2023-04-27T02:14:42.273Z,5.70
2023-04-27T02:15:42.286Z,5.30
2023-04-27T02:16:42.298Z,5.00
2023-04-27T02:17:42.279Z,5.30
2023-04-27T02:18:42.219Z,5.40
2023-04-27T02:19:42.223Z,5.20
2023-04-27T02:20:42.208Z,4.90
2023-04-27T02:21:42.192Z,5.70
2023-04-27T02:22:42.192Z,5.50
2023-04-27T02:23:42.175Z,4.80
2023-04-27T02:24:42.172Z,4.90
2023-04-27T02:25:42.150Z,6.00
2023-04-27T02:26:42.148Z,5.60
2023-04-27T02:27:42.133Z,4.90
2023-04-27T02:28:42.143Z,5.00
2023-04-27T02:29:42.100Z,4.80
2023-04-27T02:30:42.092Z,5.10
2023-04-27T02:31:42.123Z,5.10
2023-04-27T02:32:42.124Z,5.30
2023-04-27T02:33:42.065Z,5.40
2023-04-27T02:34:42.126Z,4.90
2023-04-27T02:35:42.041Z,5.10
2023-04-27T02:36:42.033Z,4.70
2023-04-27T02:37:42.024Z,5.30
2023-04-27T02:38:42.006Z,4.80
2023-04-27T02:39:41.997Z,5.00
2023-04-27T02:40:42.017Z,5.00
2023-04-27T02:41:41.973Z,5.20
2023-04-27T02:42:41.979Z,5.10
2023-04-27T02:43:41.946Z,5.20
2023-04-27T02:44:41.970Z,5.10
2023-04-27T02:45:41.929Z,5.00
2023-04-27T02:46:41.959Z,5.30
2023-04-27T02:47:41.969Z,5.00
2023-04-27T02:48:41.895Z,4.90
2023-04-27T02:49:41.888Z,4.80
2023-04-27T02:50:41.915Z,4.80
2023-04-27T02:51:41.864Z,4.80
2023-04-27T02:52:41.869Z,5.30
2023-04-27T02:53:41.871Z,5.20
2023-04-27T02:54:41.826Z,5.10
2023-04-27T02:55:41.843Z,5.30
2023-04-27T02:56:41.822Z,5.70
2023-04-27T02:57:41.826Z,5.50
2023-04-27T02:58:41.826Z,4.80
2023-04-27T02:59:41.799Z,5.00
2023-04-27T03:00:41.793Z,5.80
2023-04-27T03:01:41.925Z,5.50
2023-04-27T03:02:41.861Z,4.70
2023-04-27T03:03:41.796Z,5.20
2023-04-27T03:04:41.778Z,4.90
2023-04-27T03:05:41.709Z,5.00
2023-04-27T03:06:41.743Z,5.10
2023-04-27T03:07:41.690Z,4.90
2023-04-27T03:08:41.678Z,5.00
2023-04-27T03:09:41.693Z,5.50
2023-04-27T03:10:41.669Z,4.70
2023-04-27T03:11:41.655Z,5.40
2023-04-27T03:12:41.656Z,6.10
2023-04-27T03:13:41.646Z,4.80
2023-04-27T03:14:41.632Z,5.60
2023-04-27T03:15:41.642Z,5.80
2023-04-27T03:16:41.682Z,5.40
2023-04-27T03:17:41.591Z,5.10
2023-04-27T03:18:41.561Z,4.90
2023-04-27T03:19:41.590Z,5.80
2023-04-27T03:20:41.572Z,5.40
2023-04-27T03:21:41.559Z,5.70
2023-04-27T03:22:41.542Z,5.40
2023-04-27T03:23:41.499Z,5.90
2023-04-27T03:24:41.548Z,5.80
2023-04-27T03:25:41.500Z,5.80
2023-04-27T03:26:41.492Z,5.50
2023-04-27T03:27:41.462Z,5.80
2023-04-27T03:28:41.466Z,5.50
2023-04-27T03:29:41.461Z,5.30
2023-04-27T03:30:41.493Z,5.10
2023-04-27T03:31:41.497Z,5.50
2023-04-27T03:32:41.460Z,5.40
2023-04-27T03:33:41.412Z,5.50
2023-04-27T03:34:41.422Z,5.60
2023-04-27T03:35:41.383Z,5.60
2023-04-27T03:36:41.390Z,5.70
2023-04-27T03:37:41.362Z,5.90
2023-04-27T03:38:41.408Z,5.80
2023-04-27T03:39:41.361Z,5.90
2023-04-27T03:40:41.341Z,5.40
2023-04-27T03:41:41.315Z,5.70
2023-04-27T03:42:41.363Z,6.30
2023-04-27T03:43:41.318Z,5.80
2023-04-27T03:44:41.316Z,5.80
2023-04-27T03:45:41.292Z,5.20
2023-04-27T03:46:41.280Z,5.50
2023-04-27T03:47:41.401Z,6.30
2023-04-27T03:48:41.267Z,5.60
2023-04-27T03:49:41.256Z,5.60
2023-04-27T03:50:41.231Z,5.90
2023-04-27T03:51:41.237Z,6.20
2023-04-27T03:52:41.198Z,6.40
2023-04-27T03:53:41.192Z,5.90
2023-04-27T03:54:41.192Z,5.60
2023-04-27T03:55:41.177Z,6.60
2023-04-27T03:56:41.211Z,5.90
2023-04-27T03:57:41.151Z,6.10
2023-04-27T03:58:41.129Z,6.50
2023-04-27T03:59:41.149Z,5.80
2023-04-27T04:00:41.117Z,5.90
2023-04-27T04:01:41.127Z,5.40
2023-04-27T04:02:41.185Z,6.70
2023-04-27T04:03:41.248Z,6.30
2023-04-27T04:04:41.312Z,5.80
2023-04-27T04:05:41.059Z,6.00
2023-04-27T04:06:41.041Z,6.30
2023-04-27T04:07:41.059Z,7.60
2023-04-27T04:08:41.063Z,6.40
2023-04-27T04:09:41.039Z,5.90
2023-04-27T04:10:41.007Z,6.00
2023-04-27T04:11:41.017Z,5.80
2023-04-27T04:12:40.993Z,6.60
2023-04-27T04:13:40.969Z,5.60
2023-04-27T04:14:40.998Z,6.40
2023-04-27T04:15:40.990Z,6.00
2023-04-27T04:16:40.948Z,5.60
2023-04-27T04:17:40.986Z,5.90
2023-04-27T04:18:40.932Z,6.30
2023-04-27T04:19:40.931Z,6.70
2023-04-27T04:20:40.894Z,5.70
2023-04-27T04:21:40.887Z,5.90
2023-04-27T04:22:41.527Z,5.50
2023-04-27T04:23:40.866Z,5.30
2023-04-27T04:24:40.873Z,6.00
2023-04-27T04:25:40.851Z,5.70
2023-04-27T04:26:40.829Z,5.80
2023-04-27T04:27:40.834Z,5.80
2023-04-27T04:28:40.834Z,5.70
2023-04-27T04:29:40.828Z,5.70
2023-04-27T04:30:40.776Z,5.50
2023-04-27T04:31:40.816Z,5.60
2023-04-27T04:32:40.821Z,5.30
2023-04-27T04:33:40.750Z,5.50
2023-04-27T04:34:40.769Z,6.20
2023-04-27T04:35:40.768Z,5.70
2023-04-27T04:36:40.718Z,5.50
2023-04-27T04:37:40.725Z,6.40
2023-04-27T04:38:40.729Z,5.70
2023-04-27T04:39:40.701Z,5.00
2023-04-27T04:40:40.705Z,5.90
2023-04-27T04:41:40.664Z,5.30
2023-04-27T04:42:40.655Z,5.60
2023-04-27T04:43:40.663Z,5.90
2023-04-27T04:44:40.671Z,5.40
2023-04-27T04:45:40.661Z,5.50
2023-04-27T04:46:40.665Z,5.30
2023-04-27T04:47:40.650Z,5.50
2023-04-27T04:48:40.615Z,5.60
2023-04-27T04:49:40.599Z,5.90
2023-04-27T04:50:40.580Z,5.80
2023-04-27T04:51:40.578Z,5.50
2023-04-27T04:52:40.563Z,5.20
2023-04-27T04:53:40.538Z,5.60
2023-04-27T04:54:40.554Z,5.90
2023-04-27T04:55:40.549Z,5.70
2023-04-27T04:56:40.520Z,5.10
2023-04-27T04:57:40.489Z,5.20
2023-04-27T04:58:40.475Z,5.70
2023-04-27T04:59:40.486Z,5.50
2023-04-27T05:00:40.472Z,5.30
2023-04-27T05:01:40.484Z,5.60
2023-04-27T05:02:40.577Z,5.70
2023-04-27T05:03:40.594Z,5.50
2023-04-27T05:04:40.492Z,5.30
2023-04-27T05:05:40.438Z,5.80
2023-04-27T05:06:40.401Z,5.80
2023-04-27T05:07:40.389Z,6.10
2023-04-27T05:08:40.420Z,5.50
2023-04-27T05:09:40.359Z,5.40
2023-04-27T05:10:40.370Z,5.10
2023-04-27T05:11:40.344Z,5.50
2023-04-27T05:12:40.341Z,5.20
2023-04-27T05:13:40.323Z,5.20
2023-04-27T05:14:40.330Z,5.90
2023-04-27T05:15:40.325Z,5.30
2023-04-27T05:16:40.414Z,5.60
2023-04-27T05:17:40.303Z,4.90
2023-04-27T05:18:40.260Z,5.60
2023-04-27T05:19:40.282Z,5.30
2023-04-27T05:20:40.260Z,5.70
2023-04-27T05:21:40.238Z,5.50
2023-04-27T05:22:40.247Z,5.50
2023-04-27T05:23:40.213Z,5.00
2023-04-27T05:24:40.207Z,5.50
2023-04-27T05:25:40.200Z,5.60
2023-04-27T05:26:40.206Z,5.60
2023-04-27T05:27:40.175Z,5.10
2023-04-27T05:28:40.173Z,5.40
2023-04-27T05:29:40.140Z,5.20
2023-04-27T05:30:40.156Z,6.10
2023-04-27T05:31:40.160Z,6.00
2023-04-27T05:32:40.155Z,5.00
2023-04-27T05:33:40.102Z,5.90
2023-04-27T05:34:40.090Z,5.50
2023-04-27T05:35:40.101Z,5.80
2023-04-27T05:36:40.076Z,5.30
2023-04-27T05:37:40.067Z,5.40
2023-04-27T05:38:40.210Z,5.60
2023-04-27T05:39:40.070Z,5.00
2023-04-27T05:40:40.052Z,5.60
2023-04-27T05:41:40.033Z,5.60
2023-04-27T05:42:46.547Z,5.60
2023-04-27T05:43:39.997Z,5.60
2023-04-27T05:44:40.000Z,5.40
2023-04-27T05:45:40.022Z,5.20
2023-04-27T05:46:39.968Z,5.40
2023-04-27T05:47:39.987Z,5.10
2023-04-27T05:48:39.931Z,5.50
2023-04-27T05:49:39.930Z,5.10
2023-04-27T05:50:39.941Z,5.00
2023-04-27T05:51:39.901Z,6.40
2023-04-27T05:52:39.913Z,5.60
2023-04-27T05:53:39.880Z,5.50
2023-04-27T05:54:39.874Z,5.70
2023-04-27T05:55:39.878Z,5.60
2023-04-27T05:56:39.854Z,5.00
2023-04-27T05:57:40.501Z,5.20
2023-04-27T05:58:39.827Z,5.70
2023-04-27T05:59:39.828Z,5.70
2023-04-27T06:00:39.880Z,5.40
2023-04-27T06:01:39.801Z,4.90
2023-04-27T06:02:39.889Z,5.40
2023-04-27T06:03:39.977Z,5.50
2023-04-27T06:04:39.801Z,5.30
2023-04-27T06:05:39.850Z,5.10
2023-04-27T06:06:39.749Z,4.90
2023-04-27T06:07:39.746Z,5.50
2023-04-27T06:08:39.736Z,5.40
2023-04-27T06:09:39.716Z,5.30
2023-04-27T06:10:39.728Z,6.00
2023-04-27T06:11:39.697Z,5.60
2023-04-27T06:12:39.693Z,5.60
2023-04-27T06:13:39.666Z,5.60
2023-04-27T06:14:39.670Z,4.90
2023-04-27T06:15:39.723Z,5.10
2023-04-27T06:16:39.629Z,4.90
2023-04-27T06:17:39.654Z,5.00
2023-04-27T06:18:39.610Z,4.80
2023-04-27T06:19:39.599Z,5.60
2023-04-27T06:20:39.606Z,5.60
2023-04-27T06:21:39.584Z,5.10
2023-04-27T06:22:39.572Z,4.90
2023-04-27T06:23:39.555Z,5.00
2023-04-27T06:24:39.550Z,4.60
2023-04-27T06:25:40.282Z,4.90
2023-04-27T06:26:39.531Z,5.40
2023-04-27T06:27:39.533Z,5.40
2023-04-27T06:28:39.519Z,11.80
2023-04-27T06:29:39.492Z,7.20
2023-04-27T06:30:39.892Z,5.60
2023-04-27T06:31:39.500Z,5.20
2023-04-27T06:32:39.492Z,5.60
2023-04-27T06:33:39.459Z,4.90
2023-04-27T06:34:39.431Z,5.10
2023-04-27T06:35:39.479Z,4.70
2023-04-27T06:36:39.414Z,4.80
2023-04-27T06:37:39.399Z,4.80
2023-04-27T06:38:39.405Z,4.60
2023-04-27T06:39:39.388Z,4.40
2023-04-27T06:40:39.394Z,4.30
2023-04-27T06:41:39.366Z,4.10
2023-04-27T06:42:39.363Z,4.60
2023-04-27T06:43:39.344Z,4.50
2023-04-27T06:44:39.339Z,4.10
2023-04-27T06:45:39.334Z,4.30
2023-04-27T06:46:39.344Z,3.80
2023-04-27T06:47:39.322Z,3.90
2023-04-27T06:48:39.286Z,4.40
2023-04-27T06:49:39.292Z,4.00
2023-04-27T06:50:39.272Z,3.60
2023-04-27T06:51:39.260Z,3.60
2023-04-27T06:52:39.243Z,3.40
2023-04-27T06:53:39.236Z,3.40
2023-04-27T06:54:39.209Z,3.50
2023-04-27T06:55:39.977Z,3.50
2023-04-27T06:56:39.223Z,3.40
2023-04-27T06:57:39.190Z,3.30
2023-04-27T06:58:39.172Z,3.40
2023-04-27T06:59:39.160Z,3.70
2023-04-27T07:00:39.263Z,3.30
2023-04-27T07:01:39.219Z,3.50
2023-04-27T07:02:39.294Z,3.10
2023-04-27T07:03:39.336Z,2.90
2023-04-27T07:04:39.124Z,3.10
2023-04-27T07:05:39.122Z,2.90
2023-04-27T07:06:39.102Z,3.20
2023-04-27T07:07:39.077Z,2.80
2023-04-27T07:08:39.076Z,3.30
2023-04-27T07:09:39.070Z,2.70
2023-04-27T07:10:39.074Z,2.80
2023-04-27T07:11:39.033Z,3.30
2023-04-27T07:12:39.036Z,3.00
2023-04-27T07:13:39.017Z,2.70
2023-04-27T07:14:38.995Z,2.90
2023-04-27T07:15:39.001Z,3.60
2023-04-27T07:16:39.029Z,2.90
2023-04-27T07:17:39.027Z,3.10
2023-04-27T07:18:39.060Z,3.00
2023-04-27T07:19:38.952Z,3.10
2023-04-27T07:20:38.971Z,2.80
2023-04-27T07:21:38.926Z,2.70
2023-04-27T07:22:38.911Z,3.00
2023-04-27T07:23:38.901Z,2.80
2023-04-27T07:24:38.889Z,2.80
2023-04-27T07:25:38.893Z,2.70
2023-04-27T07:26:38.867Z,3.00
2023-04-27T07:27:38.857Z,2.40
2023-04-27T07:28:38.881Z,2.80
2023-04-27T07:29:38.834Z,2.90
2023-04-27T07:30:38.844Z,2.70
2023-04-27T07:31:38.854Z,3.00
2023-04-27T07:32:38.806Z,2.70
2023-04-27T07:33:38.800Z,2.70
2023-04-27T07:34:52.047Z,2.70
2023-04-27T07:35:38.791Z,2.70
2023-04-27T07:36:38.761Z,2.50
2023-04-27T07:37:38.778Z,2.70
2023-04-27T07:38:38.772Z,2.90
2023-04-27T07:39:38.725Z,2.70
2023-04-27T07:40:38.738Z,3.30
2023-04-27T07:41:38.705Z,2.60
2023-04-27T07:42:38.706Z,2.70
2023-04-27T07:43:38.681Z,2.80
2023-04-27T07:44:38.663Z,2.80
2023-04-27T07:45:38.727Z,2.60
2023-04-27T07:46:38.646Z,2.80
2023-04-27T07:47:38.680Z,2.70
2023-04-27T07:48:38.638Z,3.00
2023-04-27T07:49:38.612Z,3.00
2023-04-27T07:50:38.623Z,3.10
2023-04-27T07:51:38.604Z,2.70
2023-04-27T07:52:38.589Z,3.00
2023-04-27T07:53:38.592Z,2.90
2023-04-27T07:54:38.573Z,3.10
2023-04-27T07:55:38.577Z,3.50
2023-04-27T07:56:38.565Z,2.70
2023-04-27T07:57:38.552Z,2.80
2023-04-27T07:58:38.535Z,2.50
2023-04-27T07:59:38.510Z,2.80
2023-04-27T08:00:38.508Z,2.40
2023-04-27T08:01:38.505Z,2.90
2023-04-27T08:02:38.610Z,2.60
2023-04-27T08:03:38.854Z,2.80
2023-04-27T08:04:38.762Z,2.70
2023-04-27T08:05:38.702Z,2.80
2023-04-27T08:06:39.313Z,3.20
2023-04-27T08:07:44.189Z,2.50
2023-04-27T08:08:38.405Z,3.00
2023-04-27T08:09:38.401Z,3.00
2023-04-27T08:10:38.397Z,2.80
2023-04-27T08:11:38.398Z,2.80
2023-04-27T08:12:38.378Z,3.00
2023-04-27T08:13:38.353Z,2.60
2023-04-27T08:14:38.340Z,2.70
2023-04-27T08:15:38.344Z,2.80
2023-04-27T08:16:38.350Z,3.00
2023-04-27T08:17:38.337Z,3.10
2023-04-27T08:18:38.294Z,3.00
2023-04-27T08:19:38.296Z,2.40
2023-04-27T08:20:38.290Z,2.90
2023-04-27T08:21:38.273Z,2.80
2023-04-27T08:22:38.251Z,3.10
2023-04-27T08:23:38.250Z,2.70
2023-04-27T08:24:38.225Z,2.60
2023-04-27T08:25:38.247Z,2.80
2023-04-27T08:26:38.207Z,2.90
2023-04-27T08:27:38.227Z,3.00
2023-04-27T08:28:38.187Z,3.00
2023-04-27T08:29:38.184Z,2.90
2023-04-27T08:30:38.193Z,3.10
2023-04-27T08:31:38.206Z,2.80
2023-04-27T08:32:38.252Z,2.80
2023-04-27T08:33:38.133Z,3.00
2023-04-27T08:34:38.115Z,2.70
2023-04-27T08:35:38.134Z,2.80
2023-04-27T08:36:38.096Z,3.00
2023-04-27T08:37:38.093Z,2.90
2023-04-27T08:38:38.090Z,3.00
2023-04-27T08:39:38.156Z,2.80
2023-04-27T08:40:38.061Z,2.50
2023-04-27T08:41:38.053Z,2.50
2023-04-27T08:42:38.046Z,2.70
2023-04-27T08:43:38.022Z,2.90
2023-04-27T08:44:38.011Z,2.90
2023-04-27T08:45:38.013Z,2.70
2023-04-27T08:46:38.073Z,2.40
2023-04-27T08:47:43.551Z,2.80
2023-04-27T08:48:37.962Z,2.40
2023-04-27T08:49:37.954Z,2.90
2023-04-27T08:50:37.964Z,2.60
2023-04-27T08:51:37.935Z,2.60
2023-04-27T08:52:37.925Z,3.00
2023-04-27T08:53:37.929Z,3.00
2023-04-27T08:54:37.899Z,2.60
2023-04-27T08:55:37.903Z,2.50
2023-04-27T08:56:37.882Z,2.60
2023-04-27T08:57:37.871Z,2.90
2023-04-27T08:58:38.139Z,3.00
2023-04-27T08:59:37.854Z,2.60
2023-04-27T09:00:37.861Z,2.80
2023-04-27T09:01:37.870Z,3.40
2023-04-27T09:02:37.923Z,2.80
2023-04-27T09:03:37.985Z,2.70
2023-04-27T09:04:37.946Z,2.70
2023-04-27T09:05:42.263Z,2.80
2023-04-27T09:06:37.780Z,2.80
2023-04-27T09:07:37.765Z,2.80
2023-04-27T09:08:37.751Z,2.60
2023-04-27T09:09:37.739Z,3.40
2023-04-27T09:10:37.765Z,2.60
2023-04-27T09:11:37.721Z,2.60
2023-04-27T09:12:37.709Z,2.40
2023-04-27T09:13:37.703Z,2.80
2023-04-27T09:14:37.681Z,2.60
2023-04-27T09:15:37.692Z,2.60
2023-04-27T09:16:37.722Z,2.60
2023-04-27T09:17:37.700Z,2.70
2023-04-27T09:18:37.669Z,2.80
2023-04-27T09:19:37.633Z,2.50
2023-04-27T09:20:37.628Z,2.50
2023-04-27T09:21:37.623Z,2.40
2023-04-27T09:22:37.613Z,2.60
2023-04-27T09:23:37.584Z,2.80
2023-04-27T09:24:37.580Z,3.00
2023-04-27T09:25:37.567Z,2.50
2023-04-27T09:26:37.572Z,2.50
2023-04-27T09:27:37.548Z,2.70
2023-04-27T09:28:37.536Z,2.80
2023-04-27T09:29:37.539Z,2.40
2023-04-27T09:30:37.509Z,2.40
2023-04-27T09:31:37.579Z,2.80
2023-04-27T09:32:37.515Z,2.50
2023-04-27T09:33:37.493Z,2.80
2023-04-27T09:34:37.473Z,2.60
2023-04-27T09:35:37.452Z,2.40
2023-04-27T09:36:37.463Z,2.70
2023-04-27T09:37:37.453Z,2.60
2023-04-27T09:38:37.422Z,2.40
2023-04-27T09:39:37.425Z,2.40
2023-04-27T09:40:37.403Z,2.60
2023-04-27T09:41:37.399Z,2.30
2023-04-27T09:42:37.379Z,2.60
2023-04-27T09:43:37.368Z,2.30
2023-04-27T09:44:37.354Z,2.40
2023-04-27T09:45:37.424Z,2.50
2023-04-27T09:46:37.361Z,2.70
2023-04-27T09:47:37.375Z,2.50
2023-04-27T09:48:37.313Z,2.50
2023-04-27T09:49:37.325Z,2.90
2023-04-27T09:50:38.159Z,2.40
2023-04-27T09:51:37.299Z,2.40
2023-04-27T09:52:37.266Z,2.40
2023-04-27T09:53:37.272Z,2.30
2023-04-27T09:54:37.239Z,2.50
2023-04-27T09:55:37.240Z,2.50
2023-04-27T09:56:37.243Z,2.40
2023-04-27T09:57:37.229Z,2.50
2023-04-27T09:58:38.163Z,2.40
2023-04-27T09:59:37.273Z,2.20
2023-04-27T10:00:37.194Z,2.60
2023-04-27T10:01:37.637Z,2.60
2023-04-27T10:02:49.989Z,2.30
2023-04-27T10:03:37.341Z,2.50
2023-04-27T10:04:37.405Z,2.70
2023-04-27T10:05:37.133Z,2.60
2023-04-27T10:06:37.134Z,2.50
2023-04-27T10:07:37.110Z,2.20
2023-04-27T10:08:37.104Z,2.40
2023-04-27T10:09:37.078Z,2.90
2023-04-27T10:10:37.074Z,2.60
2023-04-27T10:11:37.078Z,3.20
2023-04-27T10:12:37.053Z,2.60
2023-04-27T10:13:37.029Z,2.50
2023-04-27T10:14:37.035Z,2.60
2023-04-27T10:15:37.011Z,2.70
2023-04-27T10:16:37.041Z,2.70
2023-04-27T10:17:37.084Z,3.00
2023-04-27T10:18:36.982Z,2.70
2023-04-27T10:19:36.985Z,2.80
2023-04-27T10:20:37.069Z,2.90
2023-04-27T10:21:36.980Z,2.80
2023-04-27T10:22:36.930Z,2.50
2023-04-27T10:23:36.939Z,2.80
2023-04-27T10:24:36.930Z,2.60
2023-04-27T10:25:36.913Z,2.70
2023-04-27T10:26:39.352Z,3.00
2023-04-27T10:27:36.881Z,2.80
2023-04-27T10:28:36.873Z,2.70
2023-04-27T10:29:36.861Z,3.00
2023-04-27T10:30:36.874Z,2.60
2023-04-27T10:31:36.889Z,2.80
2023-04-27T10:32:36.858Z,2.90
2023-04-27T10:33:36.821Z,3.70
2023-04-27T10:34:36.926Z,2.50
2023-04-27T10:35:36.794Z,3.00
2023-04-27T10:36:36.787Z,2.80
2023-04-27T10:37:36.796Z,3.00
2023-04-27T10:38:36.763Z,3.20
2023-04-27T10:39:47.184Z,3.30
2023-04-27T10:40:36.744Z,3.30
2023-04-27T10:41:36.726Z,2.80
2023-04-27T10:42:36.721Z,3.50
2023-04-27T10:43:36.728Z,3.20
2023-04-27T10:44:36.704Z,3.20
2023-04-27T10:45:36.703Z,3.30
2023-04-27T10:46:36.852Z,3.40
2023-04-27T10:47:36.732Z,3.30
2023-04-27T10:48:36.652Z,3.10
2023-04-27T10:49:36.686Z,3.40
2023-04-27T10:50:36.635Z,3.30
2023-04-27T10:51:36.628Z,3.10
2023-04-27T10:52:36.627Z,3.30
2023-04-27T10:53:36.593Z,3.30
2023-04-27T10:54:36.592Z,3.60
2023-04-27T10:55:36.595Z,3.60
2023-04-27T10:56:36.573Z,3.40
2023-04-27T10:57:36.583Z,3.30
2023-04-27T10:58:48.333Z,3.80
2023-04-27T10:59:36.563Z,3.20
2023-04-27T11:00:36.519Z,2.90
2023-04-27T11:01:36.565Z,3.40
2023-04-27T11:02:36.593Z,3.20
2023-04-27T11:03:36.765Z,3.50
2023-04-27T11:04:36.510Z,3.60
2023-04-27T11:05:36.468Z,3.40
2023-04-27T11:06:36.470Z,3.10
2023-04-27T11:07:36.460Z,3.20
2023-04-27T11:08:36.453Z,3.20
2023-04-27T11:09:36.439Z,3.50
2023-04-27T11:10:36.432Z,3.70
2023-04-27T11:11:36.449Z,3.50
2023-04-27T11:12:36.398Z,3.50
2023-04-27T11:13:36.424Z,3.40
2023-04-27T11:14:36.376Z,3.40
2023-04-27T11:15:36.360Z,3.20
2023-04-27T11:16:36.430Z,3.30
2023-04-27T11:17:36.395Z,3.80
2023-04-27T11:18:36.339Z,3.20
2023-04-27T11:19:36.340Z,3.30
2023-04-27T11:20:36.316Z,3.20
2023-04-27T11:21:36.299Z,3.10
2023-04-27T11:22:36.301Z,2.80
2023-04-27T11:23:36.273Z,3.20
2023-04-27T11:24:36.280Z,3.30
2023-04-27T11:25:36.252Z,3.20
2023-04-27T11:26:36.235Z,3.20
2023-04-27T11:27:36.222Z,3.20
2023-04-27T11:28:36.219Z,3.20
2023-04-27T11:29:36.226Z,2.90
2023-04-27T11:30:36.195Z,3.00
2023-04-27T11:31:36.274Z,2.90
2023-04-27T11:32:36.269Z,3.50
2023-04-27T11:33:36.158Z,3.10
2023-04-27T11:34:36.173Z,3.40
2023-04-27T11:35:36.152Z,3.60
2023-04-27T11:36:36.136Z,3.00
2023-04-27T11:37:36.119Z,3.20
2023-04-27T11:38:36.137Z,3.40
2023-04-27T11:39:36.132Z,3.50
2023-04-27T11:40:36.093Z,3.60
2023-04-27T11:41:36.077Z,3.20
2023-04-27T11:42:36.058Z,3.10
2023-04-27T11:43:36.061Z,3.40
2023-04-27T11:44:36.077Z,3.60
2023-04-27T11:45:36.056Z,3.60
2023-04-27T11:46:36.045Z,3.10
2023-04-27T11:47:36.122Z,3.50
2023-04-27T11:48:36.002Z,3.60
2023-04-27T11:49:36.010Z,3.30
2023-04-27T11:50:35.985Z,3.60
2023-04-27T11:51:35.963Z,3.70
2023-04-27T11:52:35.962Z,3.40
2023-04-27T11:53:35.947Z,3.70
2023-04-27T11:54:35.941Z,4.20
2023-04-27T11:55:35.919Z,4.20
2023-04-27T11:56:35.914Z,4.00
2023-04-27T11:57:35.960Z,3.40
2023-04-27T11:58:35.888Z,3.80
2023-04-27T11:59:35.893Z,3.50
2023-04-27T12:00:35.862Z,3.40
2023-04-27T12:01:38.389Z,3.30
2023-04-27T12:02:36.008Z,3.40
2023-04-27T12:03:36.005Z,3.30
2023-04-27T12:04:36.106Z,3.50
2023-04-27T12:05:35.891Z,3.40
2023-04-27T12:06:35.880Z,3.60
2023-04-27T12:07:35.787Z,3.70
2023-04-27T12:08:35.778Z,3.30
2023-04-27T12:09:35.822Z,3.70
2023-04-27T12:10:35.764Z,3.40
2023-04-27T12:11:35.755Z,3.50
2023-04-27T12:12:35.739Z,3.20
2023-04-27T12:13:35.730Z,3.00
2023-04-27T12:14:35.745Z,3.30
2023-04-27T12:15:35.698Z,3.20
2023-04-27T12:16:35.794Z,3.10
2023-04-27T12:17:35.756Z,3.50
2023-04-27T12:18:35.679Z,3.20
2023-04-27T12:19:35.677Z,3.50
2023-04-27T12:20:35.653Z,3.10
2023-04-27T12:21:35.632Z,2.90
2023-04-27T12:22:35.625Z,3.00
2023-04-27T12:23:35.616Z,3.20
2023-04-27T12:24:35.640Z,3.20
2023-04-27T12:25:35.590Z,3.00
2023-04-27T12:26:35.580Z,3.00
2023-04-27T12:27:35.571Z,3.20
2023-04-27T12:28:35.568Z,2.80
2023-04-27T12:29:35.576Z,3.00
2023-04-27T12:30:35.530Z,3.00
2023-04-27T12:31:35.651Z,3.00
2023-04-27T12:32:35.542Z,3.30
2023-04-27T12:33:35.520Z,3.00
2023-04-27T12:34:35.513Z,3.20
2023-04-27T12:35:35.527Z,2.80
2023-04-27T12:36:35.485Z,3.40
2023-04-27T12:37:35.466Z,3.40
2023-04-27T12:38:35.450Z,3.00
2023-04-27T12:39:35.451Z,2.90
2023-04-27T12:40:35.428Z,2.90
2023-04-27T12:41:35.418Z,3.30
2023-04-27T12:42:35.417Z,3.30
2023-04-27T12:43:35.391Z,3.50
2023-04-27T12:44:35.398Z,3.40
2023-04-27T12:45:35.384Z,3.10
2023-04-27T12:46:35.396Z,3.40
2023-04-27T12:48:35.368Z,3.20
2023-04-27T12:49:35.354Z,3.10
2023-04-27T12:50:35.331Z,3.50
2023-04-27T12:51:35.319Z,3.10
2023-04-27T12:52:35.315Z,3.40
2023-04-27T12:53:35.290Z,3.20
2023-04-27T12:54:35.293Z,3.10
2023-04-27T12:55:35.277Z,3.20
2023-04-27T12:56:35.256Z,3.10
2023-04-27T12:57:35.247Z,3.30
2023-04-27T12:58:35.235Z,2.90
2023-04-27T12:59:35.237Z,2.90
2023-04-27T13:00:35.207Z,2.80
2023-04-27T13:01:35.244Z,3.00
2023-04-27T13:02:35.341Z,2.90
2023-04-27T13:03:35.289Z,2.90
2023-04-27T13:04:35.336Z,2.80
2023-04-27T13:05:35.160Z,2.80
2023-04-27T13:06:35.146Z,3.20
2023-04-27T13:07:35.131Z,2.80
2023-04-27T13:08:35.120Z,2.80
2023-04-27T13:09:35.127Z,2.60
2023-04-27T13:10:35.098Z,2.70
2023-04-27T13:11:35.084Z,2.70
2023-04-27T13:12:35.072Z,2.70
2023-04-27T13:13:35.062Z,2.60
2023-04-27T13:14:35.069Z,2.40
2023-04-27T13:15:35.043Z,3.40
2023-04-27T13:16:35.150Z,2.70
2023-04-27T13:17:35.043Z,2.70
2023-04-27T13:18:35.291Z,2.50
2023-04-27T13:19:35.079Z,2.70